Time;durP1;ratioP1;P1;durP2;ratioP2;P2;SDS_P1;SDS_P2;PMS_P1;PMS_P2;Temp;Humidity;BMP_temperature;BMP_pressure;BME280_temperature;BME280_humidity;BME280_pressure;Samples;Min_cycle;Max_cycle;Signal;HPM_P1;HPM_P2
2022/08/02 00:02:24;;;;;;;;;;;;;;;11.50;100.00;101267.47;4956719;29;19931;-84
2022/08/02 00:04:52;;;;;;;;;;;;;;;11.49;100.00;101258.50;4958563;29;19929;-84
2022/08/02 00:07:20;;;;;;;;;;;;;;;11.49;100.00;101268.56;4940621;29;19926;-85
2022/08/02 00:09:49;;;;;;;;;;;;;;;11.47;100.00;101266.09;4940957;29;19922;-84
2022/08/02 00:12:17;;;;;;;;;;;;;;;11.47;100.00;101273.47;4940503;29;19922;-85
2022/08/02 00:14:46;;;;;;;;;;;;;;;11.46;100.00;101269.94;4956963;29;19923;-85
2022/08/02 00:17:14;;;;;;;;;;;;;;;11.46;100.00;101275.38;4956562;29;19929;-85
2022/08/02 00:19:42;;;;;;;;;;;;;;;11.34;100.00;101274.84;4940397;29;19923;-85
2022/08/02 00:22:10;;;;;;;;;;;;;;;11.32;100.00;101277.78;4956025;29;19927;-85
2022/08/02 00:24:39;;;;;;;;;;;;;;;11.25;100.00;101269.06;4939936;29;19922;-85
2022/08/02 00:27:07;;;;;;;;;;;;;;;11.17;100.00;101275.88;4940521;29;19922;-85
2022/08/02 00:29:36;;;;;;;;;;;;;;;11.29;100.00;101274.81;4940617;29;19922;-84
2022/08/02 00:32:06;;;;;;;;;;;;;;;11.28;100.00;101275.91;4940216;29;19922;-84
2022/08/02 00:34:34;;;;;;;;;;;;;;;11.30;100.00;101271.81;4940273;29;19923;-85
2022/08/02 00:37:03;;;;;;;;;;;;;;;11.29;100.00;101274.81;4955802;29;19933;-85
2022/08/02 00:39:31;;;;;;;;;;;;;;;11.27;100.00;101274.25;4955712;29;19926;-84
2022/08/02 00:41:59;;;;;;;;;;;;;;;11.12;100.00;101275.06;4940400;29;19923;-84
2022/08/02 00:44:27;;;;;;;;;;;;;;;11.11;100.00;101285.13;4940351;29;19929;-85
2022/08/02 00:46:55;;;;;;;;;;;;;;;11.11;100.00;101287.84;4955990;29;19923;-84
2022/08/02 00:49:25;;;;;;;;;;;;;;;11.10;100.00;101283.47;4940677;29;20257;-84
2022/08/02 00:51:53;;;;;;;;;;;;;;;11.05;100.00;101288.94;4955879;29;20414;-85
2022/08/02 00:54:23;;;;;;;;;;;;;;;11.01;100.00;101293.28;4955377;28;19949;-85
2022/08/02 00:56:51;;;;;;;;;;;;;;;11.04;100.00;101288.09;4955257;29;19923;-84
2022/08/02 00:59:19;;;;;;;;;;;;;;;11.06;100.00;101285.94;4939869;29;19945;-84
2022/08/02 01:01:47;;;;;;;;;;;;;;;11.04;100.00;101285.38;4957093;29;19929;-85
2022/08/02 01:04:15;;;;;;;;;;;;;;;11.04;100.00;101282.66;4940089;29;19923;-84
2022/08/02 01:06:47;;;;;;;;;;;;;;;11.03;100.00;101285.63;4957421;29;19994;-84
2022/08/02 01:09:15;;;;;;;;;;;;;;;10.98;100.00;101286.44;4955435;29;20399;-85
2022/08/02 01:11:43;;;;;;;;;;;;;;;11.00;100.00;101286.19;4939546;29;19922;-84
2022/08/02 01:14:13;;;;;;;;;;;;;;;10.95;100.00;101284.28;4955103;29;19923;-85
2022/08/02 01:16:46;;;;;;;;;;;;;;;10.91;100.00;101290.50;4939385;29;19922;-85
2022/08/02 01:19:31;;;;;;;;;;;;;;;10.91;100.00;101287.78;4938940;29;19922;-85
2022/08/02 01:22:25;;;;;;;;;;;;;;;10.83;100.00;101297.28;4938828;29;20300;-84
2022/08/02 01:25:06;;;;;;;;;;;;;;;10.81;100.00;101296.72;4943911;29;19922;-85
2022/08/02 01:27:40;;;;;;;;;;;;;;;10.86;100.00;101296.75;4954884;29;19923;-85
2022/08/02 01:30:10;;;;;;;;;;;;;;;10.79;100.00;101294.28;4955068;29;19930;-85
2022/08/02 01:32:42;;;;;;;;;;;;;;;10.80;100.00;101304.09;4938574;29;20399;-85
2022/08/02 01:35:16;;;;;;;;;;;;;;;10.80;100.00;101295.91;4936392;29;19930;-85
2022/08/02 01:37:48;;;;;;;;;;;;;;;10.81;100.00;101297.56;4935938;29;19923;-84
2022/08/02 01:40:20;;;;;;;;;;;;;;;10.77;100.00;101303.78;4936171;29;19922;-85
2022/08/02 01:42:49;;;;;;;;;;;;;;;10.72;100.00;101299.16;4937659;29;20249;-85
2022/08/02 01:45:19;;;;;;;;;;;;;;;10.69;100.00;101300.50;4944724;29;19923;-85
2022/08/02 01:47:47;;;;;;;;;;;;;;;10.70;100.00;101299.41;4954810;29;19926;-85
2022/08/02 01:50:17;;;;;;;;;;;;;;;10.72;100.00;101301.88;4956644;29;19929;-84
2022/08/02 01:52:51;;;;;;;;;;;;;;;10.69;100.00;101299.69;4955048;29;20355;-85
2022/08/02 01:55:26;;;;;;;;;;;;;;;10.65;100.00;101301.31;4956525;29;20318;-85
2022/08/02 01:57:57;;;;;;;;;;;;;;;10.56;100.00;101295.53;4954837;29;19922;-85
2022/08/02 02:00:28;;;;;;;;;;;;;;;10.64;100.00;101302.38;4956519;29;19929;-85
2022/08/02 02:02:57;;;;;;;;;;;;;;;10.61;100.00;101298.28;4954677;29;19922;-85
2022/08/02 02:05:32;;;;;;;;;;;;;;;10.63;100.00;101298.00;4954182;28;19929;-84
2022/08/02 02:08:01;;;;;;;;;;;;;;;10.61;100.00;101298.28;4954681;29;19922;-85
2022/08/02 02:10:30;;;;;;;;;;;;;;;10.54;100.00;101300.44;4955917;29;20530;-84
2022/08/02 02:13:05;;;;;;;;;;;;;;;10.43;100.00;101296.03;4938142;29;19933;-85
2022/08/02 02:15:41;;;;;;;;;;;;;;;10.49;100.00;101284.88;4934842;29;19923;-84
2022/08/02 02:18:17;;;;;;;;;;;;;;;10.48;100.00;101288.69;4935316;29;19934;-85
2022/08/02 02:20:46;;;;;;;;;;;;;;;10.45;100.00;101289.22;4935217;29;19927;-85
2022/08/02 02:23:14;;;;;;;;;;;;;;;10.46;100.00;101290.03;4939050;29;19933;-84
2022/08/02 02:25:42;;;;;;;;;;;;;;;10.38;100.00;101284.03;4954355;29;19923;-85
2022/08/02 02:28:11;;;;;;;;;;;;;;;10.39;100.00;101287.56;4954079;29;20390;-84
2022/08/02 02:30:43;;;;;;;;;;;;;;;10.41;100.00;101293.53;4953997;29;19926;-84
2022/08/02 02:33:12;;;;;;;;;;;;;;;10.33;100.00;101303.00;4938222;29;19922;-84
2022/08/02 02:35:46;;;;;;;;;;;;;;;10.33;100.00;101296.72;4940863;28;19926;-84
2022/08/02 02:38:16;;;;;;;;;;;;;;;10.39;100.00;101301.16;4953942;29;20382;-83
2022/08/02 02:40:45;;;;;;;;;;;;;;;10.31;100.00;101302.44;4938181;29;20375;-84
2022/08/02 02:43:14;;;;;;;;;;;;;;;10.29;100.00;101303.78;4953474;29;20537;-84
2022/08/02 02:45:49;;;;;;;;;;;;;;;10.30;100.00;101302.69;4953305;29;20311;-84
2022/08/02 02:48:17;;;;;;;;;;;;;;;10.25;100.00;101306.22;4954107;29;19923;-84
2022/08/02 02:50:47;;;;;;;;;;;;;;;10.27;100.00;101301.31;4937946;29;19922;-85
2022/08/02 02:53:16;;;;;;;;;;;;;;;10.20;100.00;101300.72;4953299;29;20291;-84
2022/08/02 02:55:46;;;;;;;;;;;;;;;10.25;100.00;101302.66;4955539;29;20379;-84
2022/08/02 02:58:14;;;;;;;;;;;;;;;10.16;100.00;101294.19;4955575;29;19926;-84
2022/08/02 03:03:29;;;;;;;;;;;;;;;10.10;100.00;101284.34;4937586;29;19923;-84
2022/08/02 03:05:58;;;;;;;;;;;;;;;10.05;100.00;101287.84;4925061;29;20005;-84
2022/08/02 03:08:26;;;;;;;;;;;;;;;9.97;100.00;101286.44;4937739;29;20383;-85
2022/08/02 03:10:59;;;;;;;;;;;;;;;9.93;100.00;101282.63;4937977;29;19929;-84
2022/08/02 03:13:27;;;;;;;;;;;;;;;9.91;100.00;101289.38;4937864;29;19945;-84
2022/08/02 03:15:56;;;;;;;;;;;;;;;9.83;100.00;101275.19;4937913;29;19923;-84
2022/08/02 03:18:32;;;;;;;;;;;;;;;9.84;100.00;101274.09;4955981;28;20391;-84
2022/08/02 03:21:01;;;;;;;;;;;;;;;9.85;100.00;101277.66;4947141;29;19930;-84
2022/08/02 03:23:34;;;;;;;;;;;;;;;9.82;100.00;101273.56;4958863;29;19922;-85
2022/08/02 03:26:02;;;;;;;;;;;;;;;9.74;100.00;101273.22;4957110;29;19922;-84
2022/08/02 03:28:36;;;;;;;;;;;;;;;9.74;100.00;101263.16;4957521;29;19929;-84
2022/08/02 03:31:04;;;;;;;;;;;;;;;9.76;100.00;101273.78;4956896;29;20291;-84
2022/08/02 03:33:33;;;;;;;;;;;;;;;9.77;100.00;101268.06;4956793;29;19923;-84
2022/08/02 03:36:03;;;;;;;;;;;;;;;9.80;100.00;101272.97;4956884;29;20386;-83
2022/08/02 03:38:37;;;;;;;;;;;;;;;9.80;100.00;101264.00;4957115;29;19922;-84
2022/08/02 03:41:10;;;;;;;;;;;;;;;9.73;100.00;101271.56;4957363;29;19929;-84
2022/08/02 03:43:44;;;;;;;;;;;;;;;9.74;100.00;101270.50;4956389;29;19922;-83
2022/08/02 03:46:13;;;;;;;;;;;;;;;9.79;100.00;101270.53;4972638;28;19930;-84
2022/08/02 03:48:42;;;;;;;;;;;;;;;9.77;100.00;101273.50;4972381;28;19922;-84
2022/08/02 03:51:10;;;;;;;;;;;;;;;9.72;100.00;101278.09;4956644;29;20375;-84
2022/08/02 03:53:39;;;;;;;;;;;;;;;9.81;100.00;101273.81;4957970;29;19930;-84
2022/08/02 03:56:12;;;;;;;;;;;;;;;9.89;100.00;101276.06;4940678;29;19922;-84
2022/08/02 03:58:40;;;;;;;;;;;;;;;9.94;100.00;101267.91;4956092;29;19999;-84
2022/08/02 04:01:08;;;;;;;;;;;;;;;9.89;100.00;101267.91;4956327;29;19923;-83
2022/08/02 04:03:36;;;;;;;;;;;;;;;10.00;100.00;101274.22;4969132;28;20431;-84
2022/08/02 04:06:05;;;;;;;;;;;;;;;10.00;100.00;101276.97;4956013;28;19922;-83
2022/08/02 04:08:33;;;;;;;;;;;;;;;10.02;100.00;101280.22;4954408;29;19923;-84
2022/08/02 04:13:47;;;;;;;;;;;;;;;10.15;100.00;101284.38;4940124;29;19923;-84
2022/08/02 04:16:21;;;;;;;;;;;;;;;10.23;100.00;101278.44;4955807;29;19923;-84
2022/08/02 04:18:51;;;;;;;;;;;;;;;10.27;100.00;101285.00;4940258;29;19930;-83
2022/08/02 04:21:21;;;;;;;;;;;;;;;10.28;100.00;101275.75;4957578;29;19929;-83
2022/08/02 04:23:50;;;;;;;;;;;;;;;10.31;100.00;101274.41;4955551;29;19923;-84
2022/08/02 04:26:19;;;;;;;;;;;;;;;10.33;100.00;101283.13;4940610;29;20390;-84
2022/08/02 04:28:48;;;;;;;;;;;;;;;10.37;100.00;101287.81;4939280;29;20280;-84
2022/08/02 04:31:17;;;;;;;;;;;;;;;10.44;100.00;101278.59;4939624;29;19926;-84
2022/08/02 04:33:45;;;;;;;;;;;;;;;10.48;100.00;101285.16;4955381;29;19929;-83
2022/08/02 04:36:14;;;;;;;;;;;;;;;10.48;100.00;101287.88;4936694;29;19923;-83
2022/08/02 04:38:43;;;;;;;;;;;;;;;10.42;100.00;101283.50;4956397;29;19929;-83
2022/08/02 04:41:11;;;;;;;;;;;;;;;10.53;100.00;101283.25;4955372;29;19923;-85
2022/08/02 04:43:39;;;;;;;;;;;;;;;10.66;100.00;101272.97;4955579;29;19934;-85
2022/08/02 04:46:07;;;;;;;;;;;;;;;10.75;100.00;101279.56;4955483;29;19930;-83
2022/08/02 04:48:40;;;;;;;;;;;;;;;10.84;100.00;101282.56;4956967;29;19983;-83
2022/08/02 04:51:13;;;;;;;;;;;;;;;10.92;100.00;101290.22;4957100;29;19922;-84
2022/08/02 04:53:47;;;;;;;;;;;;;;;11.01;100.00;101287.81;4938938;29;20384;-83
2022/08/02 04:56:20;;;;;;;;;;;;;;;11.05;100.00;101303.34;4938512;29;20299;-84
2022/08/02 04:58:48;;;;;;;;;;;;;;;11.02;100.00;101293.00;4954981;29;19927;-83
2022/08/02 05:01:21;;;;;;;;;;;;;;;11.14;100.00;101300.91;4952411;28;19922;-84
2022/08/02 05:03:49;;;;;;;;;;;;;;;11.30;100.00;101306.44;4953436;29;19929;-83
2022/08/02 05:06:22;;;;;;;;;;;;;;;11.36;100.00;101294.44;4951482;28;19922;-83
2022/08/02 05:08:57;;;;;;;;;;;;;;;11.53;100.00;101296.91;4954949;29;19941;-83
2022/08/02 05:11:29;;;;;;;;;;;;;;;11.65;100.00;101292.00;4954444;28;20406;-83
2022/08/02 05:14:02;;;;;;;;;;;;;;;11.63;100.00;101294.19;4953428;28;20291;-83
2022/08/02 05:16:35;;;;;;;;;;;;;;;11.76;100.00;101290.09;4950474;28;19926;-82
2022/08/02 05:19:08;;;;;;;;;;;;;;;11.91;100.00;101284.63;4954106;28;20470;-83
2022/08/02 05:21:36;;;;;;;;;;;;;;;11.77;100.00;101286.28;4956468;29;19922;-84
2022/08/02 05:24:10;;;;;;;;;;;;;;;11.45;100.00;101292.81;4954108;29;19933;-83
2022/08/02 05:26:43;;;;;;;;;;;;;;;11.55;100.00;101302.91;4956324;29;19930;-84
2022/08/02 05:29:16;;;;;;;;;;;;;;;11.98;100.00;101292.59;4938784;29;19929;-83
2022/08/02 05:31:45;;;;;;;;;;;;;;;12.88;100.00;101285.50;4955119;29;19933;-83
2022/08/02 05:34:13;;;;;;;;;;;;;;;14.22;100.00;101281.78;4952721;29;19923;-82
2022/08/02 05:36:41;;;;;;;;;;;;;;;15.36;100.00;101278.47;4953070;28;20294;-83
2022/08/02 05:39:16;;;;;;;;;;;;;;;15.35;100.00;101287.81;4949311;28;19929;-83
2022/08/02 05:41:44;;;;;;;;;;;;;;;16.00;100.00;101275.25;4954248;28;19922;-84
2022/08/02 05:44:17;;;;;;;;;;;;;;;15.81;100.00;101281.63;4955413;29;20382;-84
2022/08/02 05:46:50;;;;;;;;;;;;;;;15.92;100.00;101281.44;4955637;29;19930;-85
2022/08/02 05:49:23;;;;;;;;;;;;;;;15.76;100.00;101287.16;4954946;29;19929;-84
2022/08/02 05:51:55;;;;;;;;;;;;;;;14.98;100.00;101294.09;4951348;28;19923;-84
2022/08/02 05:54:31;;;;;;;;;;;;;;;14.77;100.00;101283.41;4943660;28;20307;-85
2022/08/02 05:57:01;;;;;;;;;;;;;;;14.66;100.00;101292.88;4952384;29;19933;-84
2022/08/02 05:59:32;;;;;;;;;;;;;;;14.23;100.00;101299.06;4952991;29;19926;-83
2022/08/02 06:02:14;;;;;;;;;;;;;;;14.14;100.00;101292.56;4959105;28;19955;-84
2022/08/02 06:04:52;;;;;;;;;;;;;;;14.16;100.00;101295.84;4951637;29;20291;-84
2022/08/02 06:07:21;;;;;;;;;;;;;;;14.23;100.00;101288.09;4941765;29;20399;-83
2022/08/02 06:09:51;;;;;;;;;;;;;;;14.29;100.00;101298.72;4942915;28;19946;-83
2022/08/02 06:12:25;;;;;;;;;;;;;;;14.34;100.00;101303.31;4956099;28;19922;-84
2022/08/02 06:14:54;;;;;;;;;;;;;;;14.46;100.00;101302.91;4951656;28;19923;-84
2022/08/02 06:17:23;;;;;;;;;;;;;;;14.36;100.00;101306.59;4939661;29;20426;-85
2022/08/02 06:19:57;;;;;;;;;;;;;;;14.35;100.00;101302.22;4954803;28;20260;-85
2022/08/02 06:22:26;;;;;;;;;;;;;;;14.45;100.00;101301.28;4954561;28;19949;-84
2022/08/02 06:24:56;;;;;;;;;;;;;;;14.46;100.00;101286.50;4942183;28;19928;-85
2022/08/02 06:27:30;;;;;;;;;;;;;;;14.21;100.00;101293.03;4937559;29;20803;-83
2022/08/02 06:30:04;;;;;;;;;;;;;;;14.24;100.00;101287.81;4933112;29;19922;-83
2022/08/02 06:32:33;;;;;;;;;;;;;;;14.35;100.00;101285.78;4953432;28;19930;-83
2022/08/02 06:35:06;;;;;;;;;;;;;;;14.17;100.00;101276.38;4971592;28;19929;-82
2022/08/02 06:37:44;;;;;;;;;;;;;;;14.21;100.00;101287.56;4957734;28;19926;-84
2022/08/02 06:40:29;;;;;;;;;;;;;;;14.32;100.00;101288.28;4932085;29;19922;-83
2022/08/02 06:43:05;;;;;;;;;;;;;;;14.38;100.00;101298.09;4936333;28;19929;-83
2022/08/02 06:45:34;;;;;;;;;;;;;;;14.40;100.00;101295.84;4951291;29;20399;-83
2022/08/02 06:48:02;;;;;;;;;;;;;;;14.44;100.00;101291.44;4963558;28;19926;-83
2022/08/02 06:50:38;;;;;;;;;;;;;;;14.50;100.00;101289.44;4948688;28;19923;-83
2022/08/02 06:53:07;;;;;;;;;;;;;;;14.69;100.00;101276.63;4936627;29;19929;-83
2022/08/02 06:55:41;;;;;;;;;;;;;;;14.81;100.00;101276.22;4920344;29;19931;-82
2022/08/02 06:58:10;;;;;;;;;;;;;;;14.99;100.00;101276.56;4932221;29;19926;-83
2022/08/02 07:00:43;;;;;;;;;;;;;;;14.90;100.00;101276.38;4937963;29;19922;-83
2022/08/02 07:03:11;;;;;;;;;;;;;;;14.94;100.00;101274.69;4944988;29;19922;-83
2022/08/02 07:05:40;;;;;;;;;;;;;;;14.96;100.00;101273.28;4953605;29;19926;-82
2022/08/02 07:08:08;;;;;;;;;;;;;;;14.99;100.00;101277.34;4954887;29;19922;-82
2022/08/02 07:10:37;;;;;;;;;;;;;;;15.03;100.00;101283.88;4949897;29;20276;-83
2022/08/02 07:13:06;;;;;;;;;;;;;;;14.93;100.00;101284.03;4955046;29;19922;-82
2022/08/02 07:15:34;;;;;;;;;;;;;;;14.95;100.00;101282.59;4955957;28;19922;-83
2022/08/02 07:18:13;;;;;;;;;;;;;;;15.18;100.00;101282.84;4953393;28;19922;-82
2022/08/02 07:20:46;;;;;;;;;;;;;;;15.14;100.00;101287.31;4952573;29;19945;-82
2022/08/02 07:23:14;;;;;;;;;;;;;;;15.20;100.00;101280.63;4952942;29;20379;-82
2022/08/02 07:25:43;;;;;;;;;;;;;;;15.28;100.00;101281.88;4954653;29;19922;-82
2022/08/02 07:28:18;;;;;;;;;;;;;;;15.24;100.00;101270.69;4952945;29;19933;-83
2022/08/02 07:30:46;;;;;;;;;;;;;;;15.36;100.00;101269.44;4952713;29;19937;-84
2022/08/02 07:33:19;;;;;;;;;;;;;;;15.65;100.00;101263.75;4951852;29;19926;-82
2022/08/02 07:35:48;;;;;;;;;;;;;;;15.76;100.00;101254.25;4953269;29;19929;-83
2022/08/02 07:38:16;;;;;;;;;;;;;;;15.88;100.00;101261.19;4945988;29;19923;-82
2022/08/02 07:40:44;;;;;;;;;;;;;;;15.93;100.00;101263.88;4937288;29;19922;-83
2022/08/02 07:43:12;;;;;;;;;;;;;;;15.91;100.00;101268.81;4952713;29;19922;-83
2022/08/02 07:45:42;;;;;;;;;;;;;;;15.94;100.00;101266.31;4952521;29;19923;-83
2022/08/02 07:48:10;;;;;;;;;;;;;;;16.04;100.00;101261.75;4936194;29;19933;-83
2022/08/02 07:50:39;;;;;;;;;;;;;;;16.10;100.00;101255.88;4952712;29;19922;-83
2022/08/02 07:53:07;;;;;;;;;;;;;;;15.95;100.00;101256.13;4951720;29;19930;-82
2022/08/02 07:55:35;;;;;;;;;;;;;;;15.96;100.00;101253.09;4935359;29;19922;-83
2022/08/02 07:58:03;;;;;;;;;;;;;;;16.11;100.00;101256.66;4937278;29;19945;-83
2022/08/02 08:00:36;;;;;;;;;;;;;;;16.16;100.00;101259.31;4954008;29;19926;-83
2022/08/02 08:03:05;;;;;;;;;;;;;;;16.28;100.00;101251.41;4952339;28;19929;-83
2022/08/02 08:05:33;;;;;;;;;;;;;;;16.43;100.00;101258.53;4940886;29;19922;-82
2022/08/02 08:08:08;;;;;;;;;;;;;;;16.48;100.00;101269.41;4954305;28;19922;-83
2022/08/02 08:10:36;;;;;;;;;;;;;;;16.60;100.00;101265.31;4956450;29;19922;-82
2022/08/02 08:13:04;;;;;;;;;;;;;;;16.65;100.00;101262.47;4971878;28;19930;-82
2022/08/02 08:15:32;;;;;;;;;;;;;;;16.71;100.00;101264.00;4956150;29;19923;-83
2022/08/02 08:18:01;;;;;;;;;;;;;;;16.79;100.00;101260.53;4939292;29;20288;-83
2022/08/02 08:20:30;;;;;;;;;;;;;;;16.80;100.00;101251.16;4953679;29;19938;-84
2022/08/02 08:23:03;;;;;;;;;;;;;;;16.88;100.00;101246.06;4954887;29;19923;-83
2022/08/02 08:25:36;;;;;;;;;;;;;;;17.00;100.00;101252.69;4954873;28;19929;-83
2022/08/02 08:28:04;;;;;;;;;;;;;;;16.97;100.00;101250.56;4952799;29;19922;-82
2022/08/02 08:30:32;;;;;;;;;;;;;;;16.99;100.00;101253.00;4936681;29;19929;-83
2022/08/02 08:33:00;;;;;;;;;;;;;;;17.02;100.00;101251.56;4954963;29;19926;-82
2022/08/02 08:35:30;;;;;;;;;;;;;;;17.19;100.00;101250.91;4953401;28;19938;-83
2022/08/02 08:37:58;;;;;;;;;;;;;;;17.26;100.00;101241.09;4934551;29;19923;-83
2022/08/02 08:40:31;;;;;;;;;;;;;;;17.37;100.00;101216.88;4952256;29;19937;-83
2022/08/02 08:43:04;;;;;;;;;;;;;;;17.53;100.00;101206.31;4951559;28;20287;-84
2022/08/02 08:45:32;;;;;;;;;;;;;;;17.95;100.00;101203.31;4953220;28;19933;-83
2022/08/02 08:48:00;;;;;;;;;;;;;;;18.02;100.00;101195.41;4952065;28;20179;-83
2022/08/02 08:50:30;;;;;;;;;;;;;;;18.02;100.00;101203.69;4955563;29;19937;-83
2022/08/02 08:53:02;;;;;;;;;;;;;;;18.06;100.00;101195.59;4953702;28;19929;-82
2022/08/02 08:55:31;;;;;;;;;;;;;;;17.98;100.00;101199.94;4947508;28;19927;-83
2022/08/02 08:58:04;;;;;;;;;;;;;;;18.01;100.00;101202.88;4947842;28;20284;-83
2022/08/02 09:00:35;;;;;;;;;;;;;;;18.15;100.00;101196.44;4949333;28;20292;-82
2022/08/02 09:03:08;;;;;;;;;;;;;;;18.14;100.00;101189.31;4953613;28;19927;-82
2022/08/02 09:05:45;;;;;;;;;;;;;;;18.11;100.00;101188.00;4941255;29;20383;-85
2022/08/02 09:08:18;;;;;;;;;;;;;;;18.29;100.00;101186.13;4951378;28;19926;-84
2022/08/02 09:10:47;;;;;;;;;;;;;;;18.44;100.00;101189.56;4952986;28;19929;-83
2022/08/02 09:13:16;;;;;;;;;;;;;;;18.52;100.00;101186.03;4956734;28;20497;-83
2022/08/02 09:15:45;;;;;;;;;;;;;;;18.40;99.20;101163.78;4949997;28;19923;-84
2022/08/02 09:18:18;;;;;;;;;;;;;;;18.66;100.00;101170.13;4950547;28;20119;-83
2022/08/02 09:20:56;;;;;;;;;;;;;;;18.91;100.00;101175.22;4951789;29;20375;-83
2022/08/02 09:23:33;;;;;;;;;;;;;;;18.82;100.00;101178.75;4945533;28;19922;-83
2022/08/02 09:26:02;;;;;;;;;;;;;;;18.92;100.00;101177.66;4958433;28;19933;-84
2022/08/02 09:28:34;;;;;;;;;;;;;;;19.08;100.00;101185.44;4957877;28;19998;-84
2022/08/02 09:31:03;;;;;;;;;;;;;;;19.09;100.00;101181.53;4957999;28;19926;-84
2022/08/02 09:33:37;;;;;;;;;;;;;;;19.10;100.00;101174.88;4945836;28;20371;-82
2022/08/02 09:36:12;;;;;;;;;;;;;;;19.29;100.00;101180.03;4952185;29;19922;-84
2022/08/02 09:38:41;;;;;;;;;;;;;;;19.17;100.00;101178.75;4947423;28;19994;-84
2022/08/02 09:41:20;;;;;;;;;;;;;;;19.24;100.00;101175.50;4949464;28;19922;-83
2022/08/02 09:43:53;;;;;;;;;;;;;;;19.43;100.00;101168.81;4938940;28;19933;-83
2022/08/02 09:46:23;;;;;;;;;;;;;;;19.61;100.00;101164.06;4936417;28;20326;-83
2022/08/02 09:48:52;;;;;;;;;;;;;;;19.67;100.00;101166.31;4947350;28;19926;-85
2022/08/02 09:51:22;;;;;;;;;;;;;;;19.77;100.00;101164.34;4946524;29;19934;-83
2022/08/02 09:53:51;;;;;;;;;;;;;;;19.74;99.14;101153.97;4946956;28;19929;-84
2022/08/02 09:56:21;;;;;;;;;;;;;;;19.81;95.76;101154.28;4946133;28;20299;-86
2022/08/02 09:58:55;;;;;;;;;;;;;;;19.94;96.77;101169.00;4948733;28;19922;-84
2022/08/02 10:01:31;;;;;;;;;;;;;;;19.89;100.00;101170.00;4947779;29;20291;-83
2022/08/02 10:04:00;;;;;;;;;;;;;;;19.83;94.36;101171.31;4951587;28;19934;-85
2022/08/02 10:06:29;;;;;;;;;;;;;;;20.07;100.00;101162.44;4952485;29;19929;-83
2022/08/02 10:08:57;;;;;;;;;;;;;;;20.05;92.24;101157.25;4951778;28;20299;-83
2022/08/02 10:11:27;;;;;;;;;;;;;;;20.08;92.03;101163.25;4946641;28;19926;-82
2022/08/02 10:13:56;;;;;;;;;;;;;;;20.13;91.16;101161.09;4952762;28;19922;-83
2022/08/02 10:16:28;;;;;;;;;;;;;;;20.35;85.53;101154.47;4934379;28;19938;-83
2022/08/02 10:19:03;;;;;;;;;;;;;;;20.68;95.65;101150.22;4949179;28;19926;-84
2022/08/02 10:21:36;;;;;;;;;;;;;;;20.84;98.99;101154.00;4949752;28;19929;-85
2022/08/02 10:24:10;;;;;;;;;;;;;;;21.00;97.51;101150.59;4953222;29;19945;-85
2022/08/02 10:26:39;;;;;;;;;;;;;;;20.94;78.55;101154.75;4944074;28;19927;-84
2022/08/02 10:29:08;;;;;;;;;;;;;;;20.76;78.41;101143.81;4955507;28;19922;-84
2022/08/02 10:31:38;;;;;;;;;;;;;;;21.03;89.89;101144.38;4948011;28;19922;-83
2022/08/02 10:34:08;;;;;;;;;;;;;;;21.00;78.43;101145.06;4948899;28;19929;-83
2022/08/02 10:36:42;;;;;;;;;;;;;;;20.91;74.77;101147.91;4946268;28;19930;-83
2022/08/02 10:39:11;;;;;;;;;;;;;;;20.99;80.19;101146.22;4948396;28;20368;-85
2022/08/02 10:41:43;;;;;;;;;;;;;;;21.22;87.67;101147.44;4951190;28;19922;-84
2022/08/02 10:44:25;;;;;;;;;;;;;;;21.23;76.77;101151.84;4952816;29;19929;-84
2022/08/02 10:47:17;;;;;;;;;;;;;;;21.34;85.58;101146.69;4943392;28;19926;-85
2022/08/02 10:49:51;;;;;;;;;;;;;;;21.51;86.23;101145.66;4951357;28;19922;-83
2022/08/02 10:52:21;;;;;;;;;;;;;;;21.48;84.50;101137.25;4944191;28;19922;-84
2022/08/02 10:54:51;;;;;;;;;;;;;;;21.65;84.81;101150.91;4930990;28;19929;-85
2022/08/02 10:57:20;;;;;;;;;;;;;;;21.49;76.44;101147.16;4939985;28;19933;-85
2022/08/02 10:59:55;;;;;;;;;;;;;;;21.54;86.15;101141.44;4914026;29;19930;-83
2022/08/02 11:02:39;;;;;;;;;;;;;;;21.56;82.90;101142.72;4933906;29;19941;-84
2022/08/02 11:05:14;;;;;;;;;;;;;;;21.74;76.20;101128.66;4932087;28;19931;-84
2022/08/02 11:07:45;;;;;;;;;;;;;;;21.82;85.60;101122.22;4931754;28;19930;-82
2022/08/02 11:10:29;;;;;;;;;;;;;;;21.90;81.90;101114.91;4937758;28;19930;-84
2022/08/02 11:13:05;;;;;;;;;;;;;;;22.12;77.24;101115.59;4916775;29;19923;-83
2022/08/02 11:15:52;;;;;;;;;;;;;;;22.06;78.49;101117.81;4915318;29;19937;-80
2022/08/02 11:18:40;;;;;;;;;;;;;;;22.20;78.08;101111.91;4934229;28;19931;-81
2022/08/02 11:21:22;;;;;;;;;;;;;;;22.13;69.80;101109.72;4936692;28;21782;-80
2022/08/02 11:23:52;;;;;;;;;;;;;;;22.28;74.71;101097.09;4936523;29;20509;-81
2022/08/02 11:26:44;;;;;;;;;;;;;;;22.49;78.28;101096.97;4910370;29;19930;-82
2022/08/02 11:29:18;;;;;;;;;;;;;;;22.50;62.05;101087.47;4929355;28;19938;-84
2022/08/02 11:31:51;;;;;;;;;;;;;;;22.56;68.97;101096.38;4920285;28;19930;-87
2022/08/02 11:34:25;;;;;;;;;;;;;;;22.57;66.28;101081.34;4921599;28;19931;-84
2022/08/02 11:36:58;;;;;;;;;;;;;;;22.36;69.41;101084.31;4911937;29;19931;-86
2022/08/02 11:39:32;;;;;;;;;;;;;;;22.73;70.30;101084.97;4925822;28;21204;-81
2022/08/02 11:42:05;;;;;;;;;;;;;;;22.90;65.54;101092.19;4910544;29;20394;-86
2022/08/02 11:44:40;;;;;;;;;;;;;;;22.99;71.31;101085.66;4925697;29;20582;-86
2022/08/02 11:47:13;;;;;;;;;;;;;;;22.98;73.44;101087.66;4912180;28;19930;-82
2022/08/02 11:49:46;;;;;;;;;;;;;;;22.90;67.68;101083.84;4933152;28;19930;-83
2022/08/02 11:52:19;;;;;;;;;;;;;;;23.00;64.74;101085.31;4928189;28;19930;-83
2022/08/02 11:54:48;;;;;;;;;;;;;;;22.90;65.10;101078.31;4925034;29;19935;-81
2022/08/02 11:57:18;;;;;;;;;;;;;;;22.88;69.51;101083.41;4931369;28;19930;-83
2022/08/02 11:59:47;;;;;;;;;;;;;;;23.16;72.18;101079.00;4913912;28;19930;-82
2022/08/02 12:02:21;;;;;;;;;;;;;;;23.42;73.64;101068.19;4931618;28;19930;-82
2022/08/02 12:04:54;;;;;;;;;;;;;;;23.38;67.37;101069.25;4932134;28;19930;-86
2022/08/02 12:07:25;;;;;;;;;;;;;;;23.24;74.67;101072.47;4931781;28;19927;-82
2022/08/02 12:09:58;;;;;;;;;;;;;;;23.31;73.07;101069.06;4914483;29;19922;-84
2022/08/02 12:12:26;;;;;;;;;;;;;;;23.18;67.91;101076.69;4927245;28;19930;-86
2022/08/02 12:14:59;;;;;;;;;;;;;;;23.33;71.02;101075.09;4930196;28;19930;-88
2022/08/02 12:20:18;;;;;;;;;;;;;;;23.30;80.89;101071.06;4934299;28;19953;-83
2022/08/02 12:22:51;;;;;;;;;;;;;;;23.37;84.05;101065.69;4934592;28;20649;-84
2022/08/02 12:25:21;;;;;;;;;;;;;;;23.16;80.99;101057.63;4911788;29;19934;-83
2022/08/02 12:27:55;;;;;;;;;;;;;;;23.10;83.74;101054.25;4928992;29;19931;-82
2022/08/02 12:30:23;;;;;;;;;;;;;;;23.14;87.03;101028.59;4931957;29;21252;-84
2022/08/02 12:33:07;;;;;;;;;;;;;;;23.34;80.82;101033.06;4928506;28;19930;-83
2022/08/02 12:35:40;;;;;;;;;;;;;;;23.38;73.70;101027.59;4926764;29;19930;-84
2022/08/02 12:38:14;;;;;;;;;;;;;;;23.26;80.58;101026.53;4929467;29;19930;-86
2022/08/02 12:40:48;;;;;;;;;;;;;;;23.25;79.91;101032.44;4927713;29;20261;-84
2022/08/02 12:43:18;;;;;;;;;;;;;;;23.55;73.79;101029.22;4926438;29;20618;-86
2022/08/02 12:45:47;;;;;;;;;;;;;;;23.89;83.51;101029.59;4925612;28;22117;-83
2022/08/02 12:48:30;;;;;;;;;;;;;;;24.13;70.38;101027.72;4935792;28;20294;-83
2022/08/02 12:51:18;;;;;;;;;;;;;;;24.11;63.08;101016.97;4928692;28;19930;-82
2022/08/02 12:53:46;;;;;;;;;;;;;;;24.20;66.57;101027.91;4928394;28;19938;-84
2022/08/02 12:56:28;;;;;;;;;;;;;;;24.21;65.17;101030.31;4930609;28;20374;-86
2022/08/02 12:59:01;;;;;;;;;;;;;;;24.19;59.80;101023.50;4929365;28;19930;-83
2022/08/02 13:01:29;;;;;;;;;;;;;;;24.21;69.22;101023.94;4933927;28;19930;-84